Time;durP1;ratioP1;P1;durP2;ratioP2;P2;SDS_P1;SDS_P2;PMS_P1;PMS_P2;Temp;Humidity;BMP_temperature;BMP_pressure;BME280_temperature;BME280_humidity;BME280_pressure;Samples;Min_cycle;Max_cycle;Signal;HPM_P1;HPM_P2
2023/12/29 00:01:56;;;;;;;;;;;;;;;8.96;100.00;100318.56;4991687;28;20491;-73
2023/12/29 00:04:22;;;;;;;6.25;1.80;;;;;;;8.91;100.00;100323.91;5006256;28;19917;-73
2023/12/29 00:06:48;;;;;;;7.60;1.98;;;;;;;8.87;100.00;100324.69;4986106;28;20045;-74
2023/12/29 00:09:14;;;;;;;6.10;1.70;;;;;;;8.78;100.00;100319.09;4999568;28;20692;-73
2023/12/29 00:11:42;;;;;;;10.07;1.77;;;;;;;8.67;100.00;100312.16;5022956;28;20057;-73
2023/12/29 00:14:07;;;;;;;7.75;2.47;;;;;;;8.62;100.00;100320.19;4986712;28;20391;-75
2023/12/29 00:16:33;;;;;;;10.85;2.17;;;;;;;8.56;100.00;100314.03;5011189;28;20485;-73
2023/12/29 00:18:59;;;;;;;7.93;1.73;;;;;;;8.48;100.00;100304.69;5006213;28;20108;-74
2023/12/29 00:21:24;;;;;;;8.18;2.10;;;;;;;8.45;100.00;100315.88;5007310;28;20521;-74
2023/12/29 00:23:50;;;;;;;6.05;1.70;;;;;;;8.38;100.00;100303.88;5017324;28;20037;-74
2023/12/29 00:26:16;;;;;;;7.70;2.00;;;;;;;8.34;100.00;100308.91;4987887;28;20103;-73
2023/12/29 00:28:43;;;;;;;6.43;2.00;;;;;;;8.34;100.00;100292.91;4994555;28;20128;-74
2023/12/29 00:31:15;;;;;;;6.13;2.03;;;;;;;8.34;100.00;100297.44;5009145;28;20167;-74
2023/12/29 00:33:42;;;;;;;6.55;2.25;;;;;;;8.34;100.00;100287.56;5001436;28;20033;-75
2023/12/29 00:36:07;;;;;;;9.02;1.90;;;;;;;8.34;100.00;100282.22;5017425;28;20041;-74
2023/12/29 00:38:34;;;;;;;8.55;2.00;;;;;;;8.37;100.00;100276.38;5025063;28;20083;-73
2023/12/29 00:41:00;;;;;;;8.82;1.73;;;;;;;8.43;100.00;100269.97;4973709;28;20041;-73
2023/12/29 00:43:26;;;;;;;9.25;2.00;;;;;;;8.48;100.00;100261.97;5017479;28;20030;-73
2023/12/29 00:45:52;;;;;;;6.90;1.88;;;;;;;8.55;100.00;100247.56;4989046;28;20082;-74
2023/12/29 00:48:18;;;;;;;7.57;2.15;;;;;;;8.64;100.00;100245.97;4975249;28;20037;-74
2023/12/29 00:50:45;;;;;;;9.60;1.90;;;;;;;8.69;100.00;100254.78;5007492;28;20052;-73
2023/12/29 00:53:11;;;;;;;7.65;1.60;;;;;;;8.68;100.00;100239.03;4988403;28;20026;-73
2023/12/29 00:55:37;;;;;;;8.68;2.75;;;;;;;8.69;100.00;100246.75;4968775;28;20138;-74
2023/12/29 00:58:02;;;;;;;8.75;2.03;;;;;;;8.78;100.00;100249.69;4999944;28;20891;-73
2023/12/29 01:00:28;;;;;;;8.68;2.30;;;;;;;8.77;100.00;100242.75;4989446;28;20033;-73
2023/12/29 01:02:55;;;;;;;9.23;2.00;;;;;;;8.78;100.00;100243.53;4990311;28;20041;-76
2023/12/29 01:05:21;;;;;;;5.47;1.85;;;;;;;8.81;100.00;100240.34;5008469;28;20064;-73
2023/12/29 01:07:47;;;;;;;9.23;2.25;;;;;;;8.87;100.00;100225.88;4990642;28;20132;-73
2023/12/29 01:10:13;;;;;;;7.32;1.60;;;;;;;8.84;100.00;100221.09;4987877;28;20116;-73
2023/12/29 01:12:39;;;;;;;;;;;;;;;8.85;100.00;100223.50;4995762;28;20541;-73
2023/12/29 01:15:06;;;;;;;5.68;1.58;;;;;;;8.88;100.00;100233.66;5013142;28;20429;-74
2023/12/29 01:17:32;;;;;;;;;;;;;;;8.90;100.00;100220.81;5018498;28;20041;-75
2023/12/29 01:19:58;;;;;;;7.75;1.85;;;;;;;8.91;100.00;100217.06;5009245;28;19916;-74
2023/12/29 01:22:23;;;;;;;10.40;1.65;;;;;;;8.89;100.00;100223.78;5000649;28;20041;-74
2023/12/29 01:24:49;;;;;;;9.07;2.30;;;;;;;8.84;100.00;100219.22;4988313;28;20057;-73
2023/12/29 01:27:15;;;;;;;8.07;1.98;;;;;;;8.84;100.00;100226.44;5002531;28;20124;-74
2023/12/29 01:29:40;;;;;;;6.22;2.33;;;;;;;8.80;100.00;100223.50;4999067;28;20133;-73
2023/12/29 01:32:07;;;;;;;7.72;1.88;;;;;;;8.80;100.00;100220.81;5003969;28;20100;-73
2023/12/29 01:34:34;;;;;;;8.05;2.30;;;;;;;8.83;100.00;100225.66;4990458;28;20041;-75
2023/12/29 01:37:02;;;;;;;5.75;1.65;;;;;;;8.79;100.00;100224.56;5001604;28;20046;-73
2023/12/29 01:39:29;;;;;;;6.38;2.15;;;;;;;8.79;100.00;100240.59;4988094;28;20033;-73
2023/12/29 01:41:55;;;;;;;7.72;1.73;;;;;;;8.79;100.00;100240.59;4995019;28;20048;-74
2023/12/29 01:44:22;;;;;;;10.05;1.90;;;;;;;8.83;100.00;100230.97;5001164;28;20029;-73
2023/12/29 01:46:50;;;;;;;8.00;1.73;;;;;;;8.84;100.00;100227.25;4973223;28;20148;-74
2023/12/29 01:49:18;;;;;;;8.70;1.80;;;;;;;8.84;100.00;100229.91;4973716;28;20049;-73
2023/12/29 01:51:44;;;;;;;8.20;1.98;;;;;;;8.91;100.00;100222.41;5005974;28;20037;-76
2023/12/29 01:54:12;;;;;;;7.40;2.20;;;;;;;8.93;100.00;100228.28;5006943;28;20068;-73
2023/12/29 01:56:39;;;;;;;6.57;2.10;;;;;;;8.93;100.00;100220.25;5005642;28;20034;-73
2023/12/29 01:59:05;;;;;;;5.75;1.50;;;;;;;8.87;100.00;100213.34;4987493;28;20037;-73
2023/12/29 02:01:31;;;;;;;5.75;2.10;;;;;;;8.82;100.00;100210.69;4987726;28;20053;-72
2023/12/29 02:03:57;;;;;;;4.75;1.48;;;;;;;8.77;100.00;100208.03;4981329;28;20595;-72
2023/12/29 02:06:25;;;;;;;8.00;1.95;;;;;;;8.76;100.00;100201.09;4974900;28;20049;-72
2023/12/29 02:08:51;;;;;;;5.85;1.80;;;;;;;8.78;100.00;100198.94;5019778;28;20044;-73
2023/12/29 02:11:17;;;;;;;9.85;1.95;;;;;;;8.76;100.00;100209.09;4991027;28;20181;-72
2023/12/29 02:13:43;;;;;;;7.95;2.00;;;;;;;8.74;100.00;100204.03;4978362;28;20056;-72
2023/12/29 02:16:16;;;;;;;;;;;;;;;8.75;100.00;100199.50;4998121;28;20053;-73
2023/12/29 02:18:47;;;;;;;7.70;1.92;;;;;;;8.71;100.00;100196.56;5026534;28;19959;-73
2023/12/29 02:21:13;;;;;;;4.32;1.50;;;;;;;8.62;100.00;100187.50;5025614;28;20041;-72
2023/12/29 02:23:39;;;;;;;6.35;1.70;;;;;;;8.64;100.00;100168.53;5003666;28;20269;-74
2023/12/29 02:26:10;;;;;;;7.00;1.92;;;;;;;8.68;100.00;100166.94;4989151;28;20417;-74
2023/12/29 02:28:42;;;;;;;9.30;2.05;;;;;;;8.69;100.00;100176.56;4975394;28;20030;-72
2023/12/29 02:31:14;;;;;;;7.53;1.63;;;;;;;8.71;100.00;100177.06;5007627;28;20045;-73
2023/12/29 02:33:42;;;;;;;8.07;2.10;;;;;;;8.73;100.00;100174.94;4996415;28;20124;-73
2023/12/29 02:36:10;;;;;;;7.43;1.75;;;;;;;8.72;100.00;100171.47;4992349;28;20068;-73
2023/12/29 02:38:37;;;;;;;7.80;1.83;;;;;;;8.70;100.00;100164.81;5009045;28;20030;-74
2023/12/29 02:41:04;;;;;;;8.00;1.83;;;;;;;8.70;100.00;100154.13;5008751;28;20045;-73
2023/12/29 02:43:33;;;;;;;6.32;1.95;;;;;;;8.76;100.00;100161.06;5004969;28;20042;-72
2023/12/29 02:45:59;;;;;;;7.70;2.00;;;;;;;8.75;100.00;100154.13;4993086;28;20037;-74
2023/12/29 02:48:24;;;;;;;9.23;1.67;;;;;;;8.75;100.00;100154.91;5004161;28;20037;-72
2023/12/29 02:50:51;;;;;;;5.80;1.42;;;;;;;8.80;100.00;100159.41;4996853;28;20037;-74
2023/12/29 02:53:16;;;;;;;6.75;1.70;;;;;;;8.85;100.00;100142.59;5000158;28;20409;-73
2023/12/29 02:55:42;;;;;;;7.18;2.20;;;;;;;8.85;100.00;100138.03;5002208;28;20046;-77
2023/12/29 02:58:09;;;;;;;5.43;1.73;;;;;;;8.82;100.00;100133.25;4957505;28;20064;-74
2023/12/29 03:00:34;;;;;;;7.10;1.88;;;;;;;8.84;100.00;100147.13;4978974;28;20132;-74
2023/12/29 03:03:00;;;;;;;9.98;1.50;;;;;;;8.81;100.00;100142.34;5016869;28;20084;-73
2023/12/29 03:05:27;;;;;;;7.20;1.45;;;;;;;8.84;100.00;100130.31;5016080;28;20086;-73
2023/12/29 03:07:53;;;;;;;6.00;1.75;;;;;;;8.82;100.00;100132.47;5016395;28;20037;-75
2023/12/29 03:10:18;;;;;;;5.18;1.48;;;;;;;8.76;100.00;100126.34;4987076;28;20080;-74
2023/12/29 03:12:44;;;;;;;7.40;1.75;;;;;;;8.72;100.00;100115.41;5005478;28;20056;-75
2023/12/29 03:15:10;;;;;;;6.57;1.27;;;;;;;8.74;100.00;100117.81;4995430;28;20037;-73
2023/12/29 03:17:36;;;;;;;8.82;1.60;;;;;;;8.72;100.00;100125.28;5027153;28;20038;-74
2023/12/29 03:20:04;;;;;;;5.20;1.08;;;;;;;8.69;100.00;100125.84;5009065;28;20033;-74
2023/12/29 03:22:30;;;;;;;4.55;1.10;;;;;;;8.66;100.00;100118.34;5003939;28;20053;-75
2023/12/29 03:24:56;;;;;;;4.07;1.15;;;;;;;8.62;100.00;100109.31;5009287;28;20032;-74
2023/12/29 03:27:22;;;;;;;4.93;1.27;;;;;;;8.54;100.00;100125.88;5010199;28;20082;-73
2023/12/29 03:29:48;;;;;;;3.88;1.40;;;;;;;8.47;100.00;100121.63;4989807;28;20744;-74
2023/12/29 03:32:15;;;;;;;4.68;1.10;;;;;;;8.45;100.00;100110.41;5024128;28;20489;-75
2023/12/29 03:34:41;;;;;;;4.72;1.30;;;;;;;8.37;100.00;100113.63;4985878;28;20053;-74
2023/12/29 03:37:07;;;;;;;5.35;1.40;;;;;;;8.34;100.00;100122.16;5015626;28;20039;-73
2023/12/29 03:39:35;;;;;;;5.70;1.20;;;;;;;8.31;100.00;100114.66;4992258;28;20463;-74
2023/12/29 03:42:01;;;;;;;4.07;1.02;;;;;;;8.28;100.00;100103.75;4990672;28;20041;-75
2023/12/29 03:44:27;;;;;;;4.20;1.20;;;;;;;8.23;100.00;100099.22;4986637;28;20083;-76
2023/12/29 03:46:53;;;;;;;3.90;1.08;;;;;;;8.24;100.00;100098.16;5028319;28;20048;-73
2023/12/29 03:49:22;;;;;;;4.57;1.10;;;;;;;8.21;100.00;100101.34;5008442;28;20037;-74
2023/12/29 03:51:48;;;;;;;4.28;1.38;;;;;;;8.21;100.00;100098.69;4999047;28;20041;-73
2023/12/29 03:54:14;;;;;;;4.93;1.08;;;;;;;8.24;100.00;100100.81;5015532;28;20043;-75
2023/12/29 03:56:40;;;;;;;4.43;1.25;;;;;;;8.27;100.00;100102.16;5015446;28;20041;-73
2023/12/29 03:59:06;;;;;;;3.50;1.10;;;;;;;8.28;100.00;100112.56;4994239;28;20026;-74
2023/12/29 04:01:33;;;;;;;2.83;0.93;;;;;;;8.29;100.00;100129.34;4975617;28;20041;-73
2023/12/29 04:03:59;;;;;;;3.67;1.10;;;;;;;8.24;100.00;100135.50;5024630;28;20038;-73
2023/12/29 04:06:25;;;;;;;5.93;1.45;;;;;;;8.17;100.00;100148.31;4987099;28;20075;-74
2023/12/29 04:08:50;;;;;;;6.28;2.00;;;;;;;8.16;100.00;100160.03;5020428;28;20026;-74
2023/12/29 04:11:16;;;;;;;6.68;1.67;;;;;;;8.07;100.00;100185.66;4991551;28;20030;-74
2023/12/29 04:13:42;;;;;;;5.60;1.50;;;;;;;7.98;100.00;100193.34;5007781;28;20036;-74
2023/12/29 04:16:07;;;;;;;2.90;0.85;;;;;;;7.85;100.00;100189.34;5007580;28;20712;-74
2023/12/29 04:18:33;;;;;;;5.72;1.13;;;;;;;7.70;100.00;100191.19;5015003;28;20710;-74
2023/12/29 04:21:00;;;;;;;5.32;0.98;;;;;;;7.62;100.00;100216.50;5005453;28;20045;-76
2023/12/29 04:23:26;;;;;;;2.78;0.93;;;;;;;7.47;100.00;100213.78;4989858;28;20037;-77
2023/12/29 04:25:52;;;;;;;5.35;1.88;;;;;;;7.33;100.00;100234.78;4994544;28;20063;-78
2023/12/29 04:28:17;;;;;;;4.72;0.80;;;;;;;7.21;100.00;100227.00;5011681;28;20034;-77
2023/12/29 04:30:43;;;;;;;3.13;1.45;;;;;;;7.12;100.00;100244.53;5010962;28;20041;-76
2023/12/29 04:33:09;;;;;;;2.97;0.70;;;;;;;6.97;100.00;100225.81;4977941;28;20128;-78
2023/12/29 04:35:34;;;;;;;2.22;0.70;;;;;;;6.92;100.00;100199.19;5008102;28;20033;-76
2023/12/29 04:38:01;;;;;;;4.57;0.60;;;;;;;6.77;100.00;100182.06;5010574;28;20056;-77
2023/12/29 04:40:27;;;;;;;2.25;0.50;;;;;;;6.64;100.00;100163.91;4986171;28;20041;-77
2023/12/29 04:42:53;;;;;;;3.42;0.98;;;;;;;6.53;100.00;100146.25;5004154;28;20037;-76
2023/12/29 04:45:20;;;;;;;2.05;0.50;;;;;;;6.49;100.00;100161.13;5004705;28;20029;-77
2023/12/29 04:47:46;;;;;;;3.20;0.80;;;;;;;6.47;100.00;100174.69;4996464;28;20486;-76
2023/12/29 04:50:12;;;;;;;3.97;0.88;;;;;;;6.37;100.00;100176.47;5014635;28;20056;-75
2023/12/29 04:52:38;;;;;;;4.25;0.80;;;;;;;6.35;100.00;100175.91;5010084;28;20116;-76
2023/12/29 04:55:03;;;;;;;2.42;0.50;;;;;;;6.28;100.00;100186.78;4996394;28;20041;-76
2023/12/29 04:57:29;;;;;;;;;;;;;;;6.19;100.00;100186.44;4997566;28;20191;-75
2023/12/29 04:59:55;;;;;;;3.00;1.13;;;;;;;6.10;100.00;100184.53;4988911;28;20382;-74
2023/12/29 05:02:21;;;;;;;3.35;0.80;;;;;;;6.00;100.00;100174.59;5009419;28;20066;-77
2023/12/29 05:04:47;;;;;;;3.17;1.17;;;;;;;5.98;100.00;100177.50;4992770;28;20114;-75
2023/12/29 05:07:12;;;;;;;2.90;0.80;;;;;;;5.95;100.00;100171.88;4994328;28;20077;-75
2023/12/29 05:09:38;;;;;;;3.22;0.70;;;;;;;5.99;100.00;100167.66;4997222;28;20046;-74
2023/12/29 05:12:04;;;;;;;2.47;0.65;;;;;;;6.01;100.00;100163.69;5000278;28;20052;-74
2023/12/29 05:14:30;;;;;;;3.83;0.80;;;;;;;6.02;100.00;100165.28;5034528;28;20044;-75
2023/12/29 05:16:56;;;;;;;4.25;1.35;;;;;;;6.05;100.00;100171.97;5016639;28;20030;-74
2023/12/29 05:19:22;;;;;;;3.22;1.00;;;;;;;6.03;100.00;100158.16;5033337;28;20438;-75
2023/12/29 05:21:51;;;;;;;2.92;0.70;;;;;;;6.00;100.00;100162.09;5005136;28;20056;-75
2023/12/29 05:24:17;;;;;;;2.75;1.08;;;;;;;6.03;100.00;100152.84;5040122;28;20403;-74
2023/12/29 05:26:43;;;;;;;3.78;1.05;;;;;;;6.08;100.00;100155.50;5013346;28;20048;-77
2023/12/29 05:29:10;;;;;;;3.15;0.77;;;;;;;6.11;100.00;100154.22;5039171;28;20053;-75
2023/12/29 05:31:36;;;;;;;5.90;0.80;;;;;;;6.10;100.00;100153.41;5004810;28;20044;-75
2023/12/29 05:34:01;;;;;;;4.22;0.70;;;;;;;6.13;100.00;100158.22;4996024;28;20048;-75
2023/12/29 05:36:27;;;;;;;2.65;0.70;;;;;;;6.13;100.00;100166.19;5011014;28;20045;-74
2023/12/29 05:38:53;;;;;;;5.80;0.95;;;;;;;6.14;100.00;100165.13;5017442;28;20045;-75
2023/12/29 05:41:18;;;;;;;4.82;0.88;;;;;;;6.17;100.00;100155.88;5000997;28;20132;-73
2023/12/29 05:43:44;;;;;;;5.13;0.98;;;;;;;6.18;100.00;100158.25;5016291;28;20082;-75
2023/12/29 05:46:11;;;;;;;4.70;0.90;;;;;;;6.20;100.00;100153.47;5007211;28;20044;-74
2023/12/29 05:48:38;;;;;;;2.78;1.10;;;;;;;6.24;100.00;100159.09;5030497;28;20083;-74
2023/12/29 05:51:10;;;;;;;4.25;0.57;;;;;;;6.28;100.00;100171.63;5000157;28;20076;-74
2023/12/29 05:53:37;;;;;;;4.85;1.10;;;;;;;6.32;100.00;100157.81;5001375;28;20040;-75
2023/12/29 05:56:02;;;;;;;;;;;;;;;6.35;100.00;100159.97;5033772;28;20029;-75
2023/12/29 05:58:28;;;;;;;5.60;0.95;;;;;;;6.36;100.00;100164.22;5020189;28;19940;-75
2023/12/29 06:00:58;;;;;;;4.95;1.20;;;;;;;6.39;100.00;100169.03;5014527;28;20033;-76
2023/12/29 06:03:24;;;;;;;4.38;1.10;;;;;;;6.41;100.00;100165.06;5016575;28;20034;-76
2023/12/29 06:05:50;;;;;;;2.63;1.13;;;;;;;6.42;100.00;100163.19;5017313;28;20033;-74
2023/12/29 06:08:16;;;;;;;5.00;0.90;;;;;;;6.44;100.00;100158.44;5014413;28;20038;-74
2023/12/29 06:10:42;;;;;;;3.33;1.25;;;;;;;6.61;100.00;100168.91;5034156;28;20083;-74
2023/12/29 06:13:08;;;;;;;;;;;;;;;6.67;100.00;100158.03;5034755;28;20041;-74
2023/12/29 06:15:34;;;;;;;5.88;1.20;;;;;;;6.69;100.00;100171.09;4996378;28;20442;-75
2023/12/29 06:18:00;;;;;;;5.72;1.42;;;;;;;6.68;100.00;100172.94;5021937;28;20046;-74
2023/12/29 06:20:26;;;;;;;4.13;1.15;;;;;;;6.65;100.00;100170.81;5015451;28;20429;-74
2023/12/29 06:22:51;;;;;;;6.68;1.67;;;;;;;6.64;100.00;100171.06;4992280;28;20474;-75
2023/12/29 06:25:18;;;;;;;5.15;1.50;;;;;;;6.61;100.00;100172.38;5014589;28;20041;-74
2023/12/29 06:27:43;;;;;;;6.35;1.60;;;;;;;6.63;100.00;100180.91;5008415;28;20048;-74
2023/12/29 06:30:13;;;;;;;7.80;1.60;;;;;;;6.66;100.00;100193.69;5028142;28;20803;-75
2023/12/29 06:32:39;;;;;;;6.20;1.63;;;;;;;6.71;100.00;100207.03;4989545;28;20037;-75
2023/12/29 06:35:06;;;;;;;8.82;2.08;;;;;;;6.74;100.00;100195.88;4968619;28;20037;-74
2023/12/29 06:37:32;;;;;;;8.13;1.77;;;;;;;6.82;100.00;100192.72;5003546;28;20029;-74
2023/12/29 06:39:58;;;;;;;10.07;2.00;;;;;;;6.94;100.00;100178.41;5009752;28;20037;-74
2023/12/29 06:42:27;;;;;;;6.75;1.63;;;;;;;6.94;100.00;100183.75;5009188;28;20038;-75
2023/12/29 06:44:52;;;;;;;9.98;1.80;;;;;;;6.93;100.00;100188.25;5010411;28;20041;-75
2023/12/29 06:47:19;;;;;;;8.82;1.65;;;;;;;6.97;100.00;100199.19;5008360;28;20038;-74
2023/12/29 06:49:45;;;;;;;6.15;1.60;;;;;;;6.94;100.00;100199.72;5001190;28;20049;-75
2023/12/29 06:52:11;;;;;;;10.00;1.83;;;;;;;6.95;100.00;100198.66;5008045;28;20044;-75
2023/12/29 06:54:37;;;;;;;10.50;2.08;;;;;;;6.95;100.00;100191.47;5025060;28;20034;-74
2023/12/29 06:57:03;;;;;;;8.90;2.25;;;;;;;6.94;100.00;100189.06;4993491;28;20045;-75
2023/12/29 06:59:28;;;;;;;7.68;1.63;;;;;;;7.01;100.00;100189.63;5003252;28;20422;-75
2023/12/29 07:01:55;;;;;;;10.85;2.22;;;;;;;7.02;100.00;100184.03;4992466;28;20049;-75
2023/12/29 07:04:20;;;;;;;10.95;1.80;;;;;;;7.05;100.00;100182.75;5009468;28;20060;-76
2023/12/29 07:06:46;;;;;;;9.50;1.80;;;;;;;7.07;100.00;100186.72;4974166;28;20048;-74
2023/12/29 07:09:13;;;;;;;9.50;1.67;;;;;;;7.07;100.00;100184.06;5012023;28;20037;-75
2023/12/29 07:11:39;;;;;;;10.07;1.73;;;;;;;7.10;100.00;100174.75;4980020;28;20034;-75
2023/12/29 07:14:05;;;;;;;12.05;2.08;;;;;;;7.07;100.00;100177.94;5009698;28;20406;-75
2023/12/29 07:16:31;;;;;;;8.93;1.80;;;;;;;7.07;100.00;100178.75;4995200;28;20136;-77
2023/12/29 07:18:56;;;;;;;9.75;2.33;;;;;;;7.06;100.00;100182.47;5010782;28;20026;-75
2023/12/29 07:21:22;;;;;;;12.60;1.90;;;;;;;7.04;100.00;100178.44;5018093;28;20148;-75
2023/12/29 07:23:48;;;;;;;8.02;1.75;;;;;;;7.06;100.00;100176.34;5012270;28;20044;-74
2023/12/29 07:26:13;;;;;;;9.35;1.67;;;;;;;7.12;100.00;100180.63;5008140;28;20167;-75
2023/12/29 07:28:39;;;;;;;7.38;1.60;;;;;;;7.14;100.00;100183.03;5010609;28;20826;-76
2023/12/29 07:31:05;;;;;;;8.02;2.00;;;;;;;7.10;100.00;100185.41;5005318;28;20037;-75
2023/12/29 07:33:31;;;;;;;10.82;2.10;;;;;;;7.13;100.00;100176.09;5008218;28;20129;-74
2023/12/29 07:35:57;;;;;;;;;;;;;;;7.11;100.00;100173.69;5012235;28;20025;-74
2023/12/29 07:38:24;;;;;;;10.70;1.83;;;;;;;7.14;100.00;100167.84;5004370;28;19917;-74
2023/12/29 07:40:50;;;;;;;9.02;2.10;;;;;;;7.13;100.00;100160.94;5005002;28;20045;-74
2023/12/29 07:43:16;;;;;;;7.18;1.95;;;;;;;7.15;100.00;100169.44;5021651;28;20080;-74
2023/12/29 07:45:43;;;;;;;15.57;2.30;;;;;;;7.18;100.00;100174.28;5009986;28;20463;-75
2023/12/29 07:48:09;;;;;;;10.30;1.80;;;;;;;7.28;100.00;100168.16;5019900;28;20068;-74
2023/12/29 07:50:34;;;;;;;14.90;1.80;;;;;;;7.34;100.00;100162.59;5006394;28;20041;-75
2023/12/29 07:53:02;;;;;;;13.38;2.50;;;;;;;7.42;100.00;100179.13;5006821;28;20184;-74
2023/12/29 07:55:30;;;;;;;9.95;2.30;;;;;;;7.42;100.00;100174.59;5005268;28;20073;-74
2023/12/29 07:57:55;;;;;;;12.27;2.13;;;;;;;7.43;100.00;100180.72;5024266;28;20056;-74
2023/12/29 08:00:23;;;;;;;8.75;1.63;;;;;;;7.47;100.00;100181.81;5011607;28;20900;-74
2023/12/29 08:02:49;;;;;;;8.75;1.80;;;;;;;7.57;100.00;100182.63;5022349;28;20037;-74
2023/12/29 08:05:15;;;;;;;7.97;1.90;;;;;;;7.68;100.00;100178.13;5023484;28;20053;-74
2023/12/29 08:07:41;;;;;;;9.57;2.05;;;;;;;7.68;100.00;100172.00;5009395;28;20032;-74
2023/12/29 08:10:07;;;;;;;7.93;2.80;;;;;;;7.67;100.00;100187.19;5004064;28;20557;-73
2023/12/29 08:12:33;;;;;;;13.80;2.33;;;;;;;7.64;100.00;100174.38;4991883;28;20038;-74
2023/12/29 08:15:00;;;;;;;9.32;1.83;;;;;;;7.71;100.00;100182.91;5022610;28;20056;-74
2023/12/29 08:17:26;;;;;;;11.88;1.70;;;;;;;7.72;100.00;100173.84;5009935;28;20037;-73
2023/12/29 08:19:51;;;;;;;10.73;1.90;;;;;;;7.69;100.00;100162.94;5004658;28;20026;-73
2023/12/29 08:22:19;;;;;;;13.15;2.38;;;;;;;7.70;100.00;100162.66;4988748;28;20034;-75
2023/12/29 08:24:45;;;;;;;12.48;2.33;;;;;;;7.69;100.00;100155.75;5007858;28;20033;-73
2023/12/29 08:27:14;;;;;;;11.80;2.45;;;;;;;7.71;100.00;100161.59;5005972;28;20556;-76
2023/12/29 08:29:42;;;;;;;13.88;1.60;;;;;;;7.73;100.00;100175.47;5025374;28;20047;-73
2023/12/29 08:32:08;;;;;;;14.45;2.40;;;;;;;7.70;100.00;100159.22;4993154;28;20132;-73
2023/12/29 08:34:37;;;;;;;11.13;2.17;;;;;;;7.70;100.00;100154.69;5007611;28;20192;-74
2023/12/29 08:37:03;;;;;;;6.63;2.15;;;;;;;7.77;100.00;100165.88;5001446;28;20040;-74
2023/12/29 08:39:29;;;;;;;14.45;2.40;;;;;;;7.80;100.00;100170.69;4989884;28;20034;-73
2023/12/29 08:41:55;;;;;;;12.57;2.03;;;;;;;7.81;100.00;100177.63;5000686;28;20025;-74
2023/12/29 08:44:21;;;;;;;10.60;2.08;;;;;;;7.84;100.00;100169.09;5005937;28;20032;-74
2023/12/29 08:46:47;;;;;;;10.52;1.95;;;;;;;7.90;100.00;100184.03;5009071;28;20128;-74
2023/12/29 08:49:12;;;;;;;12.23;1.92;;;;;;;7.91;100.00;100187.50;4985097;28;20053;-74
2023/12/29 08:51:38;;;;;;;11.93;2.33;;;;;;;7.94;100.00;100182.44;5023026;28;20040;-73
2023/12/29 08:54:04;;;;;;;11.80;2.28;;;;;;;7.98;100.00;100189.91;5007471;28;20084;-73
2023/12/29 08:56:30;;;;;;;10.98;1.75;;;;;;;7.96;100.00;100179.50;5002814;28;20045;-75
2023/12/29 08:58:56;;;;;;;;;;;;;;;7.96;100.00;100189.38;5008269;28;20021;-74
2023/12/29 09:01:22;;;;;;;15.38;2.17;;;;;;;7.96;100.00;100184.03;4972225;28;20922;-74
2023/12/29 09:03:48;;;;;;;10.00;2.22;;;;;;;8.02;100.00;100180.31;5003697;28;20585;-74
2023/12/29 09:06:14;;;;;;;14.02;1.77;;;;;;;8.10;100.00;100177.91;5005748;28;20066;-74
2023/12/29 09:08:40;;;;;;;12.38;1.70;;;;;;;8.22;100.00;100169.66;5024227;28;20037;-74
2023/12/29 09:11:05;;;;;;;8.32;1.75;;;;;;;8.27;100.00;100174.97;5003566;28;20124;-72
2023/12/29 09:13:31;;;;;;;16.33;2.58;;;;;;;8.27;100.00;100158.97;4987186;28;20104;-73
2023/12/29 09:15:58;;;;;;;;;;;;;;;8.26;100.00;100157.34;5006050;28;20025;-71
2023/12/29 09:18:24;;;;;;;11.48;2.28;;;;;;;8.21;100.00;100150.19;5001074;28;19917;-76
2023/12/29 09:20:50;;;;;;;8.77;1.67;;;;;;;8.16;100.00;100152.84;5017361;28;20041;-74
2023/12/29 09:23:16;;;;;;;11.70;2.00;;;;;;;8.10;100.00;100153.09;4977169;28;20037;-74
2023/12/29 09:25:41;;;;;;;11.20;1.70;;;;;;;8.05;100.00;100139.75;4998619;28;20034;-74
2023/12/29 09:28:08;;;;;;;9.68;2.58;;;;;;;8.08;100.00;100150.72;5021068;28;20045;-73
2023/12/29 09:30:34;;;;;;;8.10;1.70;;;;;;;8.08;100.00;100144.56;5007332;28;20479;-72
2023/12/29 09:32:59;;;;;;;9.30;1.80;;;;;;;8.10;100.00;100163.78;5003644;28;20156;-73
2023/12/29 09:35:26;;;;;;;9.95;1.83;;;;;;;8.04;100.00;100167.50;5003104;28;20049;-73
2023/12/29 09:37:52;;;;;;;7.38;1.55;;;;;;;8.00;100.00;100206.44;5003285;28;20600;-73
2023/12/29 09:40:17;;;;;;;6.65;1.27;;;;;;;7.91;100.00;100227.47;5004394;28;20079;-73
2023/12/29 09:42:44;;;;;;;;;;;;;;;7.86;100.00;100249.63;5022003;28;20040;-73
2023/12/29 09:45:12;;;;;;;9.85;2.15;;;;;;;7.69;100.00;100243.69;5002795;28;19927;-74
2023/12/29 09:47:39;;;;;;;10.38;2.28;;;;;;;7.58;100.00;100247.38;5018869;28;20042;-73
2023/12/29 09:50:09;;;;;;;8.05;1.75;;;;;;;7.44;100.00;100240.94;5002747;28;20108;-73
2023/12/29 09:52:36;;;;;;;16.02;2.22;;;;;;;7.31;100.00;100236.88;4985899;28;20457;-73
2023/12/29 09:55:03;;;;;;;9.38;1.70;;;;;;;7.23;100.00;100240.84;5001895;28;20046;-72
2023/12/29 09:57:29;;;;;;;16.10;1.73;;;;;;;7.16;100.00;100228.84;4988692;28;20033;-73
2023/12/29 09:59:56;;;;;;;8.05;1.70;;;;;;;7.12;100.00;100233.91;5010751;28;20040;-73
2023/12/29 10:02:22;;;;;;;7.07;1.70;;;;;;;7.07;100.00;100226.66;5025045;28;20102;-73
2023/12/29 10:04:48;;;;;;;11.15;1.88;;;;;;;7.03;100.00;100230.91;5013635;28;20061;-73
2023/12/29 10:07:24;;;;;;;9.30;2.05;;;;;;;7.03;100.00;100224.78;4992883;28;20033;-74
2023/12/29 10:09:57;;;;;;;12.88;2.00;;;;;;;7.00;100.00;100220.78;4975453;28;20128;-74
2023/12/29 10:12:24;;;;;;;;;;;;;;;6.99;100.00;100229.03;5008825;28;20075;-72
2023/12/29 10:15:06;;;;;;;10.50;1.67;;;;;;;6.96;100.00;100227.66;5006909;28;19935;-72
2023/12/29 10:18:05;;;;;;;8.05;1.50;;;;;;;6.93;100.00;100219.41;4984849;28;20034;-74
2023/12/29 10:21:02;;;;;;;9.63;1.60;;;;;;;6.93;100.00;100214.09;5024128;28;20044;-72
2023/12/29 10:23:43;;;;;;;10.90;1.80;;;;;;;6.89;100.00;100205.78;5023150;28;20026;-76
2023/12/29 10:26:11;;;;;;;11.02;2.25;;;;;;;6.89;100.00;100207.66;5001571;28;20045;-73
2023/12/29 10:28:37;;;;;;;8.95;1.67;;;;;;;6.92;100.00;100207.16;4996921;28;20065;-72
2023/12/29 10:31:04;;;;;;;9.90;1.73;;;;;;;6.93;100.00;100222.06;5007667;28;20567;-72
2023/12/29 10:33:32;;;;;;;12.80;1.50;;;;;;;6.92;100.00;100223.13;5003930;28;20026;-73
2023/12/29 10:36:07;;;;;;;8.88;1.65;;;;;;;6.92;100.00;100213.28;5012403;28;20087;-74
2023/12/29 10:38:33;;;;;;;8.02;1.40;;;;;;;6.94;100.00;100215.69;5004715;28;20026;-73
2023/12/29 10:41:13;;;;;;;10.25;1.83;;;;;;;6.97;100.00;100215.94;5007887;28;20582;-75
2023/12/29 10:43:39;;;;;;;8.52;1.60;;;;;;;6.96;100.00;100214.34;4985500;28;20048;-73
2023/12/29 10:46:09;;;;;;;9.88;1.88;;;;;;;6.96;100.00;100224.22;5022351;28;20033;-73
2023/12/29 10:48:36;;;;;;;10.25;2.45;;;;;;;6.99;100.00;100216.53;5000269;28;20073;-74
2023/12/29 10:51:04;;;;;;;11.18;1.75;;;;;;;7.01;100.00;100221.56;4988517;28;20041;-75
2023/12/29 10:53:31;;;;;;;9.60;1.67;;;;;;;7.02;100.00;100218.66;5001572;28;20038;-73
2023/12/29 10:55:58;;;;;;;4.90;1.40;;;;;;;7.06;100.00;100216.28;4989561;28;20095;-74
2023/12/29 10:58:27;;;;;;;9.43;1.80;;;;;;;7.14;100.00;100218.44;5005747;28;20030;-74
2023/12/29 11:00:54;;;;;;;10.63;1.60;;;;;;;7.21;100.00;100215.56;4971646;28;20037;-74
2023/12/29 11:03:20;;;;;;;9.68;1.80;;;;;;;7.25;100.00;100228.09;5020994;28;20057;-74
2023/12/29 11:05:46;;;;;;;12.55;1.50;;;;;;;7.32;100.00;100201.22;4988893;28;20144;-74
2023/12/29 11:08:16;;;;;;;9.35;1.73;;;;;;;7.40;100.00;100195.38;5018963;28;20034;-74
2023/12/29 11:10:43;;;;;;;9.48;2.22;;;;;;;7.47;100.00;100209.25;4975573;28;20124;-72
2023/12/29 11:13:11;;;;;;;7.18;1.67;;;;;;;7.55;100.00;100197.28;4987489;28;20034;-74
2023/12/29 11:15:41;;;;;;;6.70;1.50;;;;;;;7.59;100.00;100193.06;5004871;28;20040;-73
2023/12/29 11:18:09;;;;;;;8.38;1.90;;;;;;;7.65;100.00;100183.97;5004509;28;20042;-71
2023/12/29 11:20:35;;;;;;;7.70;1.30;;;;;;;7.70;100.00;100191.19;4997599;28;20572;-73
2023/12/29 11:23:04;;;;;;;8.45;1.58;;;;;;;7.73;100.00;100185.34;5006232;28;20041;-72
2023/12/29 11:25:29;;;;;;;7.03;1.45;;;;;;;7.76;100.00;100185.59;4975066;28;20447;-72